createdAt,value
2023-04-15T00:01:20.207Z,10.60
2023-04-15T00:04:09.722Z,10.50
2023-04-15T00:06:59.939Z,10.30
2023-04-15T00:09:50.903Z,10.10
2023-04-15T00:12:40.241Z,10.00
2023-04-15T00:15:29.967Z,10.00
2023-04-15T00:18:19.382Z,9.90
2023-04-15T00:21:09.588Z,9.90
2023-04-15T00:23:59.048Z,9.90
2023-04-15T00:26:50.669Z,10.00
2023-04-15T00:29:40.136Z,10.00
2023-04-15T00:32:29.722Z,10.30
2023-04-15T00:35:19.741Z,10.30
2023-04-15T00:38:09.672Z,10.40
2023-04-15T00:40:59.428Z,10.50
2023-04-15T00:43:50.354Z,10.50
2023-04-15T00:46:40.808Z,10.60
2023-04-15T00:49:31.573Z,10.60
2023-04-15T00:52:21.158Z,10.60
2023-04-15T00:55:11.630Z,10.60
2023-04-15T00:58:01.086Z,10.70
2023-04-15T01:00:54.595Z,10.70
2023-04-15T01:03:44.206Z,10.70
2023-04-15T01:06:34.068Z,10.70
2023-04-15T01:09:23.824Z,10.70
2023-04-15T01:12:21.159Z,10.70
2023-04-15T01:15:12.071Z,10.60
2023-04-15T01:18:04.198Z,10.60
2023-04-15T01:20:53.686Z,10.60
2023-04-15T01:23:43.602Z,10.60
2023-04-15T01:26:35.163Z,10.60
2023-04-15T01:29:24.721Z,10.60
2023-04-15T01:32:14.547Z,10.60
2023-04-15T01:35:04.147Z,10.60
2023-04-15T01:37:55.009Z,10.60
2023-04-15T01:40:44.460Z,10.60
2023-04-15T01:43:35.365Z,10.60
2023-04-15T01:46:25.545Z,10.50
2023-04-15T01:49:15.158Z,10.50
2023-04-15T01:52:04.584Z,10.50
2023-04-15T01:54:54.110Z,10.50
2023-04-15T01:57:43.693Z,10.40
2023-04-15T02:00:34.807Z,10.50
2023-04-15T02:03:24.530Z,10.50
2023-04-15T02:06:14.045Z,10.60
2023-04-15T02:09:04.758Z,10.50
2023-04-15T02:12:11.299Z,10.60
2023-04-15T02:15:01.094Z,10.50
2023-04-15T02:17:53.089Z,10.50
2023-04-15T02:20:44.006Z,10.50
2023-04-15T02:23:35.697Z,10.40
2023-04-15T02:26:26.037Z,10.50
2023-04-15T02:29:24.319Z,10.50
2023-04-15T02:32:14.269Z,10.50
2023-04-15T02:35:07.368Z,10.40
2023-04-15T02:37:57.391Z,10.40
2023-04-15T02:40:47.156Z,10.40
2023-04-15T02:43:36.916Z,10.40
2023-04-15T02:46:27.922Z,10.40
2023-04-15T02:49:17.512Z,10.40
2023-04-15T02:52:11.587Z,10.40
2023-04-15T02:55:06.992Z,10.40
2023-04-15T02:57:59.912Z,10.30
2023-04-15T03:00:55.065Z,10.30
2023-04-15T03:03:47.614Z,10.30
2023-04-15T03:06:37.490Z,10.40
2023-04-15T03:09:28.807Z,10.40
2023-04-15T03:12:20.851Z,10.40
2023-04-15T03:15:11.823Z,10.40
2023-04-15T03:18:01.584Z,10.40
2023-04-15T03:20:51.844Z,10.50
2023-04-15T03:23:41.482Z,10.40
2023-04-15T03:26:37.727Z,10.40
2023-04-15T03:29:27.304Z,10.40
2023-04-15T03:32:17.280Z,10.40
2023-04-15T03:35:07.583Z,10.40
2023-04-15T03:37:57.003Z,10.40
2023-04-15T03:40:52.622Z,10.40
2023-04-15T03:43:43.605Z,10.40
2023-04-15T03:46:33.500Z,10.50
2023-04-15T03:49:25.293Z,10.40
2023-04-15T03:52:14.808Z,10.40
2023-04-15T03:55:05.779Z,10.50
2023-04-15T03:58:00.467Z,10.40
2023-04-15T04:00:51.736Z,10.30
2023-04-15T04:03:43.674Z,10.30
2023-04-15T04:06:39.467Z,10.30
2023-04-15T04:09:32.433Z,10.30
2023-04-15T04:12:23.360Z,10.30
2023-04-15T04:15:20.936Z,10.30
2023-04-15T04:18:12.073Z,10.30
2023-04-15T04:21:04.678Z,10.30
2023-04-15T04:23:54.184Z,10.20
2023-04-15T04:26:46.843Z,10.30
2023-04-15T04:29:41.774Z,10.30
2023-04-15T04:32:31.838Z,10.30
2023-04-15T04:35:23.331Z,10.40
2023-04-15T04:38:13.303Z,10.40
2023-04-15T04:41:13.743Z,10.20
2023-04-15T04:44:04.021Z,10.20
2023-04-15T04:46:53.823Z,10.30
2023-04-15T04:49:48.142Z,10.20
2023-04-15T04:52:39.505Z,10.20
2023-04-15T04:55:32.014Z,10.30
2023-04-15T04:58:21.983Z,10.30
2023-04-15T05:01:12.943Z,10.30
2023-04-15T05:04:08.786Z,10.20
2023-04-15T05:06:59.405Z,10.20
2023-04-15T05:09:51.581Z,10.10
2023-04-15T05:12:47.819Z,10.00
2023-04-15T05:15:39.538Z,10.00
2023-04-15T05:18:29.882Z,10.00
2023-04-15T05:21:20.916Z,10.00
2023-04-15T05:24:11.216Z,9.90
2023-04-15T05:27:03.392Z,10.00
2023-04-15T05:30:00.886Z,9.90
2023-04-15T05:32:50.527Z,9.90
2023-04-15T05:35:40.215Z,10.00
2023-04-15T05:38:29.708Z,9.90
2023-04-15T05:41:19.972Z,9.90
2023-04-15T05:44:12.015Z,9.90
2023-04-15T05:47:02.341Z,10.00
2023-04-15T05:49:52.528Z,10.10
2023-04-15T05:52:42.864Z,10.10
2023-04-15T05:55:33.426Z,10.20
2023-04-15T05:58:26.000Z,10.20
2023-04-15T06:01:17.536Z,10.40
2023-04-15T06:04:07.762Z,10.40
2023-04-15T06:06:57.606Z,10.40
2023-04-15T06:09:47.463Z,10.30
2023-04-15T06:12:37.866Z,10.20
2023-04-15T06:15:29.075Z,10.10
2023-04-15T06:18:25.586Z,10.00
2023-04-15T06:21:26.664Z,10.20
2023-04-15T06:28:51.569Z,10.40
2023-04-15T06:34:59.083Z,10.50
2023-04-15T06:38:16.465Z,10.40
2023-04-15T06:42:35.353Z,10.40
2023-04-15T06:44:46.614Z,10.50
2023-04-15T06:47:57.117Z,10.50
2023-04-15T06:51:36.976Z,10.70
2023-04-15T06:55:42.322Z,10.70
2023-04-15T06:59:27.247Z,10.60
2023-04-15T07:03:18.039Z,10.70
2023-04-15T07:13:56.743Z,11.00
2023-04-15T07:22:12.883Z,10.80
2023-04-15T07:26:39.210Z,10.90
2023-04-15T07:29:22.862Z,10.80
2023-04-15T07:37:16.386Z,10.90
2023-04-15T07:40:13.246Z,11.10
2023-04-15T07:43:35.595Z,11.20
2023-04-15T07:46:40.787Z,11.30
2023-04-15T07:50:02.331Z,11.50
2023-04-15T07:56:50.570Z,11.60
2023-04-15T08:00:06.529Z,11.70
2023-04-15T08:03:38.634Z,11.70
2023-04-15T08:06:54.688Z,11.60
2023-04-15T08:10:04.230Z,11.50
2023-04-15T08:13:30.625Z,11.50
2023-04-15T08:16:55.221Z,11.70
2023-04-15T08:20:00.843Z,11.90
2023-04-15T08:23:06.795Z,11.80
2023-04-15T08:26:28.321Z,11.90
2023-04-15T08:30:29.794Z,11.90
2023-04-15T08:33:41.953Z,11.70
2023-04-15T08:37:15.988Z,11.90
2023-04-15T08:40:18.397Z,12.00
2023-04-15T08:43:14.348Z,11.90
2023-04-15T08:46:41.562Z,12.10
2023-04-15T08:50:00.705Z,12.40
2023-04-15T08:52:51.126Z,12.70
2023-04-15T08:56:35.162Z,12.70
2023-04-15T08:59:28.884Z,12.30
2023-04-15T09:02:32.617Z,12.50
2023-04-15T09:05:48.407Z,12.50
2023-04-15T09:08:46.602Z,12.40
2023-04-15T09:12:23.074Z,12.50
2023-04-15T09:15:15.088Z,12.50
2023-04-15T09:18:09.631Z,12.60
2023-04-15T09:21:11.783Z,12.40
2023-04-15T09:24:28.038Z,12.30
2023-04-15T09:28:13.648Z,12.20
2023-04-15T09:32:05.971Z,12.30
2023-04-15T09:35:44.797Z,12.10
2023-04-15T09:39:48.943Z,12.10
2023-04-15T09:50:24.571Z,12.20
2023-04-15T09:53:46.590Z,12.00
2023-04-15T09:57:23.868Z,12.00
2023-04-15T10:00:50.918Z,12.20
2023-04-15T10:03:50.652Z,12.20
2023-04-15T10:07:12.176Z,12.30
2023-04-15T10:10:19.962Z,12.40
2023-04-15T10:13:39.704Z,12.30
2023-04-15T10:17:11.561Z,12.30
2023-04-15T10:20:13.191Z,12.10
2023-04-15T10:23:29.570Z,12.10
2023-04-15T10:26:26.035Z,11.90
2023-04-15T10:32:53.565Z,12.20
2023-04-15T10:35:49.709Z,11.90
2023-04-15T10:39:14.113Z,11.90
2023-04-15T10:42:21.066Z,11.90
2023-04-15T10:45:21.230Z,12.10
2023-04-15T10:48:35.464Z,12.40
2023-04-15T10:51:47.363Z,12.70
2023-04-15T10:55:04.999Z,12.50
2023-04-15T10:58:09.231Z,12.40
2023-04-15T11:01:09.406Z,12.30
2023-04-15T11:04:07.524Z,12.50
2023-04-15T11:07:34.398Z,12.60
2023-04-15T11:11:18.589Z,12.50
2023-04-15T11:14:17.890Z,12.50
2023-04-15T11:17:11.906Z,12.70
2023-04-15T11:20:08.262Z,12.40
2023-04-15T11:23:17.733Z,12.50
2023-04-15T11:26:13.305Z,12.40
2023-04-15T11:29:03.702Z,12.60
2023-04-15T11:31:56.815Z,12.60
2023-04-15T11:34:51.078Z,12.60
2023-04-15T11:37:44.563Z,12.70
2023-04-15T11:40:41.593Z,12.70
2023-04-15T11:44:13.926Z,12.90
2023-04-15T11:47:30.175Z,13.00
2023-04-15T11:50:21.677Z,12.70
2023-04-15T11:53:18.765Z,12.90
2023-04-15T11:56:23.282Z,12.90
2023-04-15T11:59:24.903Z,13.10
2023-04-15T12:05:49.451Z,13.00
2023-04-15T12:09:07.722Z,13.10
2023-04-15T12:12:58.772Z,12.70
2023-04-15T12:19:41.394Z,12.60
2023-04-15T12:23:27.065Z,12.70
2023-04-15T12:27:11.879Z,12.80
2023-04-15T12:30:11.826Z,12.80
2023-04-15T12:33:26.593Z,12.70
2023-04-15T12:36:42.273Z,13.00
2023-04-15T12:40:04.735Z,12.90
2023-04-15T12:43:28.977Z,12.80
2023-04-15T12:46:27.051Z,12.60
2023-04-15T12:49:32.397Z,12.60
2023-04-15T12:53:32.837Z,12.50
2023-04-15T12:56:27.578Z,12.30
2023-04-15T13:00:13.955Z,12.30
2023-04-15T13:03:10.840Z,12.20
2023-04-15T13:06:07.546Z,12.20
2023-04-15T13:09:29.484Z,12.30
2023-04-15T13:12:35.856Z,12.30
2023-04-15T13:15:56.403Z,12.70
2023-04-15T13:18:53.085Z,12.90
2023-04-15T13:22:05.810Z,13.00
2023-04-15T13:25:01.862Z,12.70
2023-04-15T13:28:06.648Z,12.70
2023-04-15T13:31:00.704Z,12.40
2023-04-15T13:33:59.842Z,12.00
2023-04-15T13:36:51.226Z,11.60
2023-04-15T13:39:48.933Z,11.50
2023-04-15T13:43:06.461Z,11.70
2023-04-15T13:46:10.342Z,11.60
2023-04-15T13:49:07.475Z,11.60
2023-04-15T13:52:11.427Z,11.50
2023-04-15T13:55:08.190Z,11.50
2023-04-15T13:58:13.336Z,11.20
2023-04-15T14:01:07.779Z,11.00
2023-04-15T14:04:00.285Z,11.20
2023-04-15T14:06:52.853Z,11.30
2023-04-15T14:09:48.656Z,11.20
2023-04-15T14:12:39.717Z,11.10
2023-04-15T14:15:29.712Z,11.00
2023-04-15T14:18:23.769Z,10.90
2023-04-15T14:21:15.719Z,10.90
2023-04-15T14:24:07.261Z,10.60
2023-04-15T14:26:57.331Z,10.70
2023-04-15T14:29:47.657Z,10.60
2023-04-15T14:32:37.587Z,10.60
2023-04-15T14:36:03.579Z,10.60
2023-04-15T14:38:55.242Z,10.50
2023-04-15T14:41:45.301Z,10.50
2023-04-15T14:44:35.292Z,10.50
2023-04-15T14:47:34.000Z,10.50
2023-04-15T14:50:27.874Z,10.40
2023-04-15T14:53:18.155Z,10.40
2023-04-15T14:56:09.900Z,10.30
2023-04-15T14:59:00.003Z,10.30
2023-04-15T15:01:50.305Z,10.40
2023-04-15T15:04:44.371Z,10.30
2023-04-15T15:07:38.709Z,10.30
2023-04-15T15:10:46.103Z,10.20
2023-04-15T15:13:41.215Z,10.20
2023-04-15T15:16:33.545Z,10.20
2023-04-15T15:19:24.389Z,10.30
2023-04-15T15:22:14.333Z,10.10
2023-04-15T15:25:05.072Z,10.10
2023-04-15T15:27:57.922Z,10.10
2023-04-15T15:30:49.538Z,10.10
2023-04-15T15:33:39.513Z,10.10
2023-04-15T15:36:30.242Z,9.90
2023-04-15T15:39:24.380Z,9.70
2023-04-15T15:42:14.894Z,9.60
2023-04-15T15:45:06.972Z,9.50
2023-04-15T15:48:02.804Z,9.50
2023-04-15T15:50:53.570Z,9.60
2023-04-15T15:54:32.450Z,9.50
2023-04-15T16:05:36.828Z,9.70
2023-04-15T16:09:17.205Z,9.60
2023-04-15T16:15:42.666Z,9.60
2023-04-15T16:18:34.587Z,9.60
2023-04-15T16:21:25.282Z,9.60
2023-04-15T16:24:15.337Z,9.50
2023-04-15T16:27:05.155Z,9.40
2023-04-15T16:29:54.949Z,9.40
2023-04-15T16:32:45.923Z,9.40
2023-04-15T16:35:35.713Z,9.40
2023-04-15T16:38:25.560Z,9.20
2023-04-15T16:41:16.528Z,9.20
2023-04-15T16:44:09.062Z,9.30
2023-04-15T16:46:59.201Z,9.30
2023-04-15T16:49:51.102Z,9.20
2023-04-15T16:52:41.228Z,9.10
2023-04-15T16:55:33.364Z,9.00
2023-04-15T16:58:24.330Z,9.00
2023-04-15T17:01:13.946Z,9.10
2023-04-15T17:04:04.116Z,8.90
2023-04-15T17:06:55.177Z,8.90
2023-04-15T17:09:44.800Z,8.80
2023-04-15T17:12:34.471Z,8.90
2023-04-15T17:15:24.254Z,8.80
2023-04-15T17:18:15.220Z,8.70
2023-04-15T17:21:06.124Z,8.60
2023-04-15T17:23:57.479Z,8.50
2023-04-15T17:26:47.742Z,8.50
2023-04-15T17:29:37.648Z,8.60
2023-04-15T17:32:32.157Z,8.70
2023-04-15T17:35:23.578Z,8.70
2023-04-15T17:38:13.504Z,8.70
2023-04-15T17:41:05.834Z,8.60
2023-04-15T17:43:55.765Z,8.70
2023-04-15T17:46:48.139Z,8.70
2023-04-15T17:49:39.559Z,8.60
2023-04-15T17:52:29.496Z,8.60
2023-04-15T17:55:20.381Z,8.70
2023-04-15T17:58:12.903Z,8.70
2023-04-15T18:01:03.506Z,8.70
2023-04-15T18:03:53.670Z,8.70
2023-04-15T18:06:44.602Z,8.70
2023-04-15T18:09:37.950Z,8.70
2023-04-15T18:12:29.008Z,8.70
2023-04-15T18:15:20.941Z,8.70
2023-04-15T18:18:11.224Z,8.60
2023-04-15T18:21:02.662Z,8.50
2023-04-15T18:23:53.466Z,8.50
2023-04-15T18:26:43.704Z,8.50
2023-04-15T18:29:35.090Z,8.50
2023-04-15T18:32:31.219Z,8.50
2023-04-15T18:35:25.480Z,8.40
2023-04-15T18:38:17.504Z,8.40
2023-04-15T18:41:09.984Z,8.30
2023-04-15T18:44:00.638Z,8.30
2023-04-15T18:46:52.632Z,8.20
2023-04-15T18:49:44.302Z,8.20
2023-04-15T18:52:36.206Z,8.20
2023-04-15T18:55:26.029Z,8.20
2023-04-15T18:58:16.369Z,8.30
2023-04-15T19:01:06.781Z,8.40
2023-04-15T19:03:56.944Z,8.30
2023-04-15T19:06:50.374Z,8.30
2023-04-15T19:09:44.677Z,8.30
2023-04-15T19:12:34.872Z,8.30
2023-04-15T19:15:25.013Z,8.30
2023-04-15T19:18:18.033Z,8.20
2023-04-15T19:21:08.561Z,8.20
2023-04-15T19:24:01.533Z,8.10
2023-04-15T19:26:53.436Z,8.10
2023-04-15T19:29:43.985Z,8.00
2023-04-15T19:32:35.200Z,8.10
2023-04-15T19:35:33.989Z,8.20
2023-04-15T19:38:25.164Z,8.10
2023-04-15T19:41:17.354Z,8.20
2023-04-15T19:44:07.724Z,8.10
2023-04-15T19:46:59.108Z,8.00
2023-04-15T19:49:50.877Z,8.00
2023-04-15T19:52:43.203Z,8.10
2023-04-15T19:55:34.364Z,8.00
2023-04-15T19:58:26.346Z,7.90
2023-04-15T20:01:18.491Z,7.90
2023-04-15T20:04:10.084Z,7.90
2023-04-15T20:07:00.367Z,8.00
2023-04-15T20:09:52.566Z,7.90
2023-04-15T20:12:50.839Z,7.90
2023-04-15T20:15:45.713Z,7.80
2023-04-15T20:18:38.346Z,7.90
2023-04-15T20:21:29.221Z,7.90
2023-04-15T20:24:22.599Z,7.90
2023-04-15T20:27:12.942Z,7.70
2023-04-15T20:30:09.603Z,7.70
2023-04-15T20:33:09.190Z,7.60
2023-04-15T20:36:04.047Z,7.60
2023-04-15T20:38:54.210Z,7.60
2023-04-15T20:41:47.589Z,7.60
2023-04-15T20:44:42.697Z,7.50
2023-04-15T20:47:33.558Z,7.40
2023-04-15T20:50:26.701Z,7.40
2023-04-15T20:53:23.630Z,7.40
2023-04-15T20:56:15.090Z,7.40
2023-04-15T20:59:05.988Z,7.30
2023-04-15T21:01:57.364Z,7.30
2023-04-15T21:04:48.680Z,7.30
2023-04-15T21:07:40.299Z,7.30
2023-04-15T21:10:35.536Z,7.30
2023-04-15T21:13:26.858Z,7.20
2023-04-15T21:16:16.977Z,7.20
2023-04-15T21:19:06.889Z,7.20
2023-04-15T21:21:57.263Z,7.30
2023-04-15T21:24:51.425Z,7.30
2023-04-15T21:27:42.782Z,7.30
2023-04-15T21:30:32.259Z,7.30
2023-04-15T21:33:21.999Z,7.30
2023-04-15T21:36:11.568Z,7.40
2023-04-15T21:39:01.255Z,7.30
2023-04-15T21:41:57.451Z,7.30
2023-04-15T21:44:48.256Z,7.30
2023-04-15T21:48:00.430Z,7.30
2023-04-15T21:50:48.618Z,7.20
2023-04-15T21:53:37.957Z,7.00
2023-04-15T21:56:31.049Z,7.10
2023-04-15T21:59:26.890Z,7.10
2023-04-15T22:02:16.922Z,7.10
2023-04-15T22:05:08.158Z,7.20
2023-04-15T22:07:58.623Z,7.10
2023-04-15T22:10:48.241Z,7.20
2023-04-15T22:13:38.484Z,7.20
2023-04-15T22:16:29.757Z,7.20
2023-04-15T22:19:19.869Z,7.10
2023-04-15T22:22:09.576Z,7.20
2023-04-15T22:24:58.970Z,7.20
2023-04-15T22:27:48.430Z,7.20
2023-04-15T22:30:40.112Z,7.20
2023-04-15T22:33:31.255Z,7.30
2023-04-15T22:36:20.975Z,7.20
2023-04-15T22:39:10.334Z,7.10
2023-04-15T22:41:59.988Z,7.00
2023-04-15T22:44:49.717Z,6.90
2023-04-15T22:47:39.266Z,6.90
2023-04-15T22:50:30.636Z,6.80
2023-04-15T22:53:20.432Z,6.70
2023-04-15T22:56:10.053Z,6.70
2023-04-15T22:58:59.353Z,6.60
2023-04-15T23:01:49.014Z,6.70
2023-04-15T23:04:38.778Z,6.70
2023-04-15T23:07:29.881Z,6.70
2023-04-15T23:10:19.532Z,6.70
2023-04-15T23:13:09.289Z,6.60
2023-04-15T23:15:58.738Z,6.60
2023-04-15T23:18:48.334Z,6.50
2023-04-15T23:21:45.668Z,6.60
2023-04-15T23:24:36.552Z,6.50
2023-04-15T23:27:26.174Z,6.60
2023-04-15T23:30:15.642Z,6.50
2023-04-15T23:33:06.145Z,6.50
2023-04-15T23:35:55.670Z,6.60
2023-04-15T23:38:45.979Z,6.60
2023-04-15T23:41:36.830Z,6.70
2023-04-15T23:44:26.572Z,6.60
2023-04-15T23:47:15.981Z,6.60
2023-04-15T23:50:05.473Z,6.60
2023-04-15T23:52:55.043Z,6.70
2023-04-15T23:55:44.514Z,6.70
2023-04-15T23:58:35.510Z,6.70
